sensor_id;sensor_type;location;lat;lon;timestamp;pressure;altitude;pressure_sealevel;temperature;humidity
55010;BME280;40903;51.638;7.528;2024-02-28T00:02:18;101398.09;;;0.04;100.00
55010;BME280;40903;51.638;7.528;2024-02-28T00:04:43;101404.69;;;0.01;100.00
55010;BME280;40903;51.638;7.528;2024-02-28T00:07:09;101404.06;;;-0.01;100.00
55010;BME280;40903;51.638;7.528;2024-02-28T00:09:34;101406.94;;;-0.02;100.00
55010;BME280;40903;51.638;7.528;2024-02-28T00:12:00;101406.13;;;-0.03;100.00
55010;BME280;40903;51.638;7.528;2024-02-28T00:14:25;101402.59;;;-0.03;100.00
55010;BME280;40903;51.638;7.528;2024-02-28T00:16:51;101409.00;;;-0.04;100.00
55010;BME280;40903;51.638;7.528;2024-02-28T00:19:16;101413.53;;;-0.04;100.00
55010;BME280;40903;51.638;7.528;2024-02-28T00:21:43;101416.22;;;-0.04;100.00
55010;BME280;40903;51.638;7.528;2024-02-28T00:24:09;101416.22;;;-0.04;100.00
55010;BME280;40903;51.638;7.528;2024-02-28T00:26:35;101418.91;;;-0.04;100.00
55010;BME280;40903;51.638;7.528;2024-02-28T00:29:01;101424.88;;;-0.03;100.00
55010;BME280;40903;51.638;7.528;2024-02-28T00:31:26;101429.22;;;-0.02;100.00
55010;BME280;40903;51.638;7.528;2024-02-28T00:33:52;101422.81;;;-0.01;100.00
55010;BME280;40903;51.638;7.528;2024-02-28T00:36:18;101426.53;;;-0.02;100.00
55010;BME280;40903;51.638;7.528;2024-02-28T00:38:43;101430.03;;;-0.01;100.00
55010;BME280;40903;51.638;7.528;2024-02-28T00:41:09;101425.91;;;-0.03;100.00
55010;BME280;40903;51.638;7.528;2024-02-28T00:43:34;101435.00;;;-0.04;100.00
55010;BME280;40903;51.638;7.528;2024-02-28T00:46:00;101429.19;;;-0.08;100.00
55010;BME280;40903;51.638;7.528;2024-02-28T00:48:26;101441.16;;;-0.10;100.00
55010;BME280;40903;51.638;7.528;2024-02-28T00:50:54;101435.78;;;-0.10;100.00
55010;BME280;40903;51.638;7.528;2024-02-28T00:53:20;101430.44;;;-0.10;100.00
55010;BME280;40903;51.638;7.528;2024-02-28T00:55:45;101433.94;;;-0.10;100.00
55010;BME280;40903;51.638;7.528;2024-02-28T00:58:11;101420.75;;;-0.11;100.00
55010;BME280;40903;51.638;7.528;2024-02-28T01:00:36;101425.28;;;-0.12;100.00
55010;BME280;40903;51.638;7.528;2024-02-28T01:03:02;101423.41;;;-0.11;100.00
55010;BME280;40903;51.638;7.528;2024-02-28T01:05:30;101423.00;;;-0.08;100.00
55010;BME280;40903;51.638;7.528;2024-02-28T01:07:55;101420.31;;;-0.08;100.00
55010;BME280;40903;51.638;7.528;2024-02-28T01:10:21;101427.13;;;-0.06;100.00
55010;BME280;40903;51.638;7.528;2024-02-28T01:12:47;101424.88;;;-0.03;100.00
55010;BME280;40903;51.638;7.528;2024-02-28T01:15:13;101420.56;;;-0.03;100.00
55010;BME280;40903;51.638;7.528;2024-02-28T01:17:38;101416.44;;;0.00;100.00
55010;BME280;40903;51.638;7.528;2024-02-28T01:20:05;101416.63;;;-0.01;100.00
55010;BME280;40903;51.638;7.528;2024-02-28T01:22:32;101424.28;;;0.02;100.00
55010;BME280;40903;51.638;7.528;2024-02-28T01:24:58;101420.97;;;0.06;100.00
55010;BME280;40903;51.638;7.528;2024-02-28T01:27:23;101417.66;;;0.11;100.00
55010;BME280;40903;51.638;7.528;2024-02-28T01:29:48;101424.47;;;0.13;100.00
55010;BME280;40903;51.638;7.528;2024-02-28T01:32:14;101411.69;;;0.15;100.00
55010;BME280;40903;51.638;7.528;2024-02-28T01:34:39;101409.63;;;0.17;100.00
55010;BME280;40903;51.638;7.528;2024-02-28T01:37:05;101409.22;;;0.20;100.00
55010;BME280;40903;51.638;7.528;2024-02-28T01:39:30;101413.53;;;0.21;100.00
55010;BME280;40903;51.638;7.528;2024-02-28T01:41:56;101412.94;;;0.26;100.00
55010;BME280;40903;51.638;7.528;2024-02-28T01:44:22;101419.53;;;0.30;100.00
55010;BME280;40903;51.638;7.528;2024-02-28T01:46:48;101428.22;;;0.32;100.00
55010;BME280;40903;51.638;7.528;2024-02-28T01:49:14;101426.94;;;0.34;100.00
55010;BME280;40903;51.638;7.528;2024-02-28T01:51:41;101425.72;;;0.37;100.00
55010;BME280;40903;51.638;7.528;2024-02-28T01:54:07;101425.53;;;0.38;100.00
55010;BME280;40903;51.638;7.528;2024-02-28T01:56:33;101423.22;;;0.42;100.00
55010;BME280;40903;51.638;7.528;2024-02-28T01:59:00;101426.34;;;0.45;100.00
55010;BME280;40903;51.638;7.528;2024-02-28T02:01:27;101414.16;;;0.49;100.00
55010;BME280;40903;51.638;7.528;2024-02-28T02:03:53;101413.72;;;0.52;100.00
55010;BME280;40903;51.638;7.528;2024-02-28T02:06:20;101411.25;;;0.57;100.00
55010;BME280;40903;51.638;7.528;2024-02-28T02:08:46;101408.16;;;0.60;100.00
55010;BME280;40903;51.638;7.528;2024-02-28T02:11:13;101414.13;;;0.62;100.00
55010;BME280;40903;51.638;7.528;2024-02-28T02:13:50;101410.41;;;0.63;100.00
55010;BME280;40903;51.638;7.528;2024-02-28T02:16:16;101409.38;;;0.64;100.00
55010;BME280;40903;51.638;7.528;2024-02-28T02:18:41;101402.38;;;0.63;100.00
55010;BME280;40903;51.638;7.528;2024-02-28T02:21:08;101405.66;;;0.65;100.00
55010;BME280;40903;51.638;7.528;2024-02-28T02:23:36;101407.53;;;0.65;100.00
55010;BME280;40903;51.638;7.528;2024-02-28T02:26:07;101408.78;;;0.62;100.00
55010;BME280;40903;51.638;7.528;2024-02-28T02:28:32;101417.66;;;0.63;100.00
55010;BME280;40903;51.638;7.528;2024-02-28T02:30:58;101424.06;;;0.62;100.00
55010;BME280;40903;51.638;7.528;2024-02-28T02:33:23;101422.41;;;0.61;100.00
55010;BME280;40903;51.638;7.528;2024-02-28T02:35:49;101419.72;;;0.61;100.00
55010;BME280;40903;51.638;7.528;2024-02-28T02:38:14;101410.84;;;0.60;100.00
55010;BME280;40903;51.638;7.528;2024-02-28T02:40:40;101417.06;;;0.61;100.00
55010;BME280;40903;51.638;7.528;2024-02-28T02:43:06;101415.38;;;0.60;100.00
55010;BME280;40903;51.638;7.528;2024-02-28T02:45:31;101411.25;;;0.57;100.00
55010;BME280;40903;51.638;7.528;2024-02-28T02:47:57;101415.19;;;0.55;100.00
55010;BME280;40903;51.638;7.528;2024-02-28T02:50:22;101408.16;;;0.54;100.00
55010;BME280;40903;51.638;7.528;2024-02-28T02:52:48;101420.78;;;0.53;100.00
55010;BME280;40903;51.638;7.528;2024-02-28T02:55:13;101422.81;;;0.51;100.00
55010;BME280;40903;51.638;7.528;2024-02-28T02:57:39;101421.78;;;0.52;100.00
55010;BME280;40903;51.638;7.528;2024-02-28T03:00:08;101422.63;;;0.53;100.00
55010;BME280;40903;51.638;7.528;2024-02-28T03:02:34;101436.44;;;0.56;100.00
55010;BME280;40903;51.638;7.528;2024-02-28T03:05:03;101434.38;;;0.58;100.00
55010;BME280;40903;51.638;7.528;2024-02-28T03:07:28;101429.00;;;0.58;100.00
55010;BME280;40903;51.638;7.528;2024-02-28T03:09:53;101436.84;;;0.60;100.00
55010;BME280;40903;51.638;7.528;2024-02-28T03:12:19;101443.66;;;0.62;100.00
55010;BME280;40903;51.638;7.528;2024-02-28T03:14:44;101441.59;;;0.64;100.00
55010;BME280;40903;51.638;7.528;2024-02-28T03:17:10;101444.28;;;0.64;100.00
55010;BME280;40903;51.638;7.528;2024-02-28T03:19:35;101434.38;;;0.65;100.00
55010;BME280;40903;51.638;7.528;2024-02-28T03:22:01;101445.53;;;0.68;100.00
55010;BME280;40903;51.638;7.528;2024-02-28T03:24:28;101448.22;;;0.68;100.00
55010;BME280;40903;51.638;7.528;2024-02-28T03:26:53;101440.34;;;0.67;100.00
55010;BME280;40903;51.638;7.528;2024-02-28T03:29:19;101440.16;;;0.68;100.00
55010;BME280;40903;51.638;7.528;2024-02-28T03:31:44;101449.84;;;0.69;100.00
55010;BME280;40903;51.638;7.528;2024-02-28T03:34:10;101446.13;;;0.70;100.00
55010;BME280;40903;51.638;7.528;2024-02-28T03:36:35;101440.53;;;0.72;100.00
55010;BME280;40903;51.638;7.528;2024-02-28T03:39:02;101448.41;;;0.73;100.00
55010;BME280;40903;51.638;7.528;2024-02-28T03:41:27;101454.56;;;0.74;100.00
55010;BME280;40903;51.638;7.528;2024-02-28T03:43:53;101457.69;;;0.77;100.00
55010;BME280;40903;51.638;7.528;2024-02-28T03:46:18;101452.91;;;0.79;100.00
55010;BME280;40903;51.638;7.528;2024-02-28T03:48:44;101459.53;;;0.83;100.00
55010;BME280;40903;51.638;7.528;2024-02-28T03:51:09;101459.13;;;0.86;100.00
55010;BME280;40903;51.638;7.528;2024-02-28T03:53:35;101465.09;;;0.88;100.00
55010;BME280;40903;51.638;7.528;2024-02-28T03:56:00;101463.03;;;0.90;100.00
55010;BME280;40903;51.638;7.528;2024-02-28T03:58:28;101462.59;;;0.93;100.00
55010;BME280;40903;51.638;7.528;2024-02-28T04:00:53;101458.69;;;0.96;100.00
55010;BME280;40903;51.638;7.528;2024-02-28T04:03:19;101463.81;;;0.97;100.00
55010;BME280;40903;51.638;7.528;2024-02-28T04:05:44;101463.19;;;1.02;100.00
55010;BME280;40903;51.638;7.528;2024-02-28T04:08:12;101461.78;;;1.06;100.00
55010;BME280;40903;51.638;7.528;2024-02-28T04:10:37;101461.34;;;1.09;100.00
55010;BME280;40903;51.638;7.528;2024-02-28T04:13:03;101461.94;;;1.11;100.00
55010;BME280;40903;51.638;7.528;2024-02-28T04:15:30;101458.84;;;1.14;100.00
55010;BME280;40903;51.638;7.528;2024-02-28T04:17:56;101470.00;;;1.17;100.00
55010;BME280;40903;51.638;7.528;2024-02-28T04:20:21;101466.03;;;1.20;100.00
55010;BME280;40903;51.638;7.528;2024-02-28T04:22:46;101466.44;;;1.23;100.00
55010;BME280;40903;51.638;7.528;2024-02-28T04:25:12;101472.44;;;1.25;100.00
55010;BME280;40903;51.638;7.528;2024-02-28T04:27:38;101472.22;;;1.27;100.00
55010;BME280;40903;51.638;7.528;2024-02-28T04:30:05;101476.38;;;1.29;100.00
55010;BME280;40903;51.638;7.528;2024-02-28T04:32:31;101478.03;;;1.30;100.00
55010;BME280;40903;51.638;7.528;2024-02-28T04:34:56;101470.34;;;1.34;100.00
55010;BME280;40903;51.638;7.528;2024-02-28T04:37:22;101473.44;;;1.37;100.00
55010;BME280;40903;51.638;7.528;2024-02-28T04:39:48;101470.31;;;1.40;100.00
55010;BME280;40903;51.638;7.528;2024-02-28T04:42:15;101476.94;;;1.44;100.00
55010;BME280;40903;51.638;7.528;2024-02-28T04:44:41;101478.59;;;1.45;100.00
55010;BME280;40903;51.638;7.528;2024-02-28T04:47:07;101483.53;;;1.48;100.00
55010;BME280;40903;51.638;7.528;2024-02-28T04:49:32;101483.72;;;1.53;100.00
55010;BME280;40903;51.638;7.528;2024-02-28T04:51:57;101491.56;;;1.55;100.00
55010;BME280;40903;51.638;7.528;2024-02-28T04:54:24;101491.97;;;1.58;100.00
55010;BME280;40903;51.638;7.528;2024-02-28T04:56:49;101493.19;;;1.62;100.00
55010;BME280;40903;51.638;7.528;2024-02-28T04:59:16;101495.66;;;1.64;100.00
55010;BME280;40903;51.638;7.528;2024-02-28T05:01:42;101502.47;;;1.66;100.00
55010;BME280;40903;51.638;7.528;2024-02-28T05:04:08;101496.22;;;1.72;100.00
55010;BME280;40903;51.638;7.528;2024-02-28T05:06:34;101506.56;;;1.75;100.00
55010;BME280;40903;51.638;7.528;2024-02-28T05:09:00;101509.88;;;1.77;100.00
55010;BME280;40903;51.638;7.528;2024-02-28T05:11:26;101508.41;;;1.81;100.00
55010;BME280;40903;51.638;7.528;2024-02-28T05:13:51;101506.72;;;1.87;100.00
55010;BME280;40903;51.638;7.528;2024-02-28T05:16:17;101504.03;;;1.87;100.00
55010;BME280;40903;51.638;7.528;2024-02-28T05:18:44;101500.91;;;1.89;100.00
55010;BME280;40903;51.638;7.528;2024-02-28T05:21:10;101511.47;;;1.91;100.00
55010;BME280;40903;51.638;7.528;2024-02-28T05:23:35;101514.75;;;1.93;100.00
55010;BME280;40903;51.638;7.528;2024-02-28T05:26:02;101514.53;;;1.94;100.00
55010;BME280;40903;51.638;7.528;2024-02-28T05:28:30;101520.31;;;1.98;100.00
55010;BME280;40903;51.638;7.528;2024-02-28T05:30:56;101524.84;;;2.04;100.00
55010;BME280;40903;51.638;7.528;2024-02-28T05:33:22;101517.97;;;2.08;100.00
55010;BME280;40903;51.638;7.528;2024-02-28T05:35:48;101512.16;;;2.11;100.00
55010;BME280;40903;51.638;7.528;2024-02-28T05:38:14;101513.00;;;2.11;100.00
55010;BME280;40903;51.638;7.528;2024-02-28T05:40:41;101519.81;;;2.14;100.00
55010;BME280;40903;51.638;7.528;2024-02-28T05:43:06;101516.31;;;2.13;100.00
55010;BME280;40903;51.638;7.528;2024-02-28T05:45:32;101513.63;;;2.13;100.00
55010;BME280;40903;51.638;7.528;2024-02-28T05:47:57;101520.25;;;2.11;100.00
55010;BME280;40903;51.638;7.528;2024-02-28T05:50:23;101523.09;;;2.16;100.00
55010;BME280;40903;51.638;7.528;2024-02-28T05:52:50;101526.84;;;2.15;100.00
55010;BME280;40903;51.638;7.528;2024-02-28T05:55:15;101528.06;;;2.19;100.00
55010;BME280;40903;51.638;7.528;2024-02-28T05:57:41;101524.72;;;2.23;100.00
55010;BME280;40903;51.638;7.528;2024-02-28T06:00:07;101537.13;;;2.24;100.00
55010;BME280;40903;51.638;7.528;2024-02-28T06:02:38;101541.25;;;2.27;100.00
55010;BME280;40903;51.638;7.528;2024-02-28T06:05:04;101550.97;;;2.28;100.00
55010;BME280;40903;51.638;7.528;2024-02-28T06:07:30;101548.47;;;2.33;100.00
55010;BME280;40903;51.638;7.528;2024-02-28T06:09:55;101558.19;;;2.34;100.00
55010;BME280;40903;51.638;7.528;2024-02-28T06:12:21;101562.69;;;2.40;100.00
55010;BME280;40903;51.638;7.528;2024-02-28T06:14:46;101556.47;;;2.39;100.00
55010;BME280;40903;51.638;7.528;2024-02-28T06:17:13;101561.66;;;2.41;100.00
55010;BME280;40903;51.638;7.528;2024-02-28T06:19:38;101566.84;;;2.42;100.00
55010;BME280;40903;51.638;7.528;2024-02-28T06:22:03;101566.41;;;2.45;100.00
55010;BME280;40903;51.638;7.528;2024-02-28T06:24:29;101564.50;;;2.46;100.00
55010;BME280;40903;51.638;7.528;2024-02-28T06:26:54;101571.53;;;2.47;100.00
55010;BME280;40903;51.638;7.528;2024-02-28T06:29:20;101573.81;;;2.50;100.00
55010;BME280;40903;51.638;7.528;2024-02-28T06:31:53;101576.28;;;2.51;100.00
55010;BME280;40903;51.638;7.528;2024-02-28T06:34:19;101581.06;;;2.49;100.00
55010;BME280;40903;51.638;7.528;2024-02-28T06:36:45;101581.66;;;2.51;100.00
55010;BME280;40903;51.638;7.528;2024-02-28T06:39:10;101585.19;;;2.52;100.00
55010;BME280;40903;51.638;7.528;2024-02-28T06:41:36;101584.75;;;2.55;100.00
55010;BME280;40903;51.638;7.528;2024-02-28T06:44:01;101578.72;;;2.59;100.00
55010;BME280;40903;51.638;7.528;2024-02-28T06:46:27;101586.56;;;2.61;100.00
55010;BME280;40903;51.638;7.528;2024-02-28T06:48:52;101590.28;;;2.66;100.00
55010;BME280;40903;51.638;7.528;2024-02-28T06:51:18;101591.91;;;2.67;100.00
55010;BME280;40903;51.638;7.528;2024-02-28T06:53:43;101595.22;;;2.69;100.00
55010;BME280;40903;51.638;7.528;2024-02-28T06:56:09;101596.22;;;2.75;100.00
55010;BME280;40903;51.638;7.528;2024-02-28T06:58:35;101588.75;;;2.77;100.00
55010;BME280;40903;51.638;7.528;2024-02-28T07:01:00;101583.97;;;2.79;100.00
55010;BME280;40903;51.638;7.528;2024-02-28T07:03:26;101589.53;;;2.84;100.00
55010;BME280;40903;51.638;7.528;2024-02-28T07:05:52;101593.03;;;2.84;100.00
55010;BME280;40903;51.638;7.528;2024-02-28T07:08:18;101595.53;;;2.86;100.00
55010;BME280;40903;51.638;7.528;2024-02-28T07:10:46;101595.06;;;2.89;100.00
55010;BME280;40903;51.638;7.528;2024-02-28T07:13:14;101592.78;;;2.92;100.00
55010;BME280;40903;51.638;7.528;2024-02-28T07:15:40;101591.53;;;2.95;100.00
55010;BME280;40903;51.638;7.528;2024-02-28T07:18:07;101597.50;;;2.97;100.00
55010;BME280;40903;51.638;7.528;2024-02-28T07:20:33;101599.38;;;2.96;100.00
55010;BME280;40903;51.638;7.528;2024-02-28T07:22:58;101599.38;;;2.96;100.00
55010;BME280;40903;51.638;7.528;2024-02-28T07:25:24;101602.91;;;2.97;100.00
55010;BME280;40903;51.638;7.528;2024-02-28T07:27:49;101592.72;;;2.99;100.00
55010;BME280;40903;51.638;7.528;2024-02-28T07:30:15;101597.00;;;3.06;100.00
55010;BME280;40903;51.638;7.528;2024-02-28T07:32:40;101602.56;;;3.11;100.00
55010;BME280;40903;51.638;7.528;2024-02-28T07:35:06;101601.06;;;3.15;100.00
55010;BME280;40903;51.638;7.528;2024-02-28T07:37:32;101603.09;;;3.20;100.00
55010;BME280;40903;51.638;7.528;2024-02-28T07:39:57;101604.53;;;3.22;100.00
55010;BME280;40903;51.638;7.528;2024-02-28T07:42:23;101607.41;;;3.27;100.00
55010;BME280;40903;51.638;7.528;2024-02-28T07:44:49;101604.03;;;3.32;100.00
55010;BME280;40903;51.638;7.528;2024-02-28T07:47:19;101600.31;;;3.33;100.00
55010;BME280;40903;51.638;7.528;2024-02-28T07:49:44;101604.63;;;3.34;100.00
55010;BME280;40903;51.638;7.528;2024-02-28T07:52:10;101606.22;;;3.41;100.00
55010;BME280;40903;51.638;7.528;2024-02-28T07:54:35;101614.25;;;3.48;100.00
55010;BME280;40903;51.638;7.528;2024-02-28T07:57:02;101613.19;;;3.49;100.00
55010;BME280;40903;51.638;7.528;2024-02-28T07:59:27;101613.59;;;3.52;100.00
55010;BME280;40903;51.638;7.528;2024-02-28T08:01:53;101623.88;;;3.62;100.00
55010;BME280;40903;51.638;7.528;2024-02-28T08:04:18;101618.47;;;3.62;100.00
55010;BME280;40903;51.638;7.528;2024-02-28T08:06:44;101621.94;;;3.69;100.00
55010;BME280;40903;51.638;7.528;2024-02-28T08:09:09;101615.03;;;3.73;100.00
55010;BME280;40903;51.638;7.528;2024-02-28T08:11:35;101607.34;;;3.76;100.00
55010;BME280;40903;51.638;7.528;2024-02-28T08:14:00;101610.97;;;3.81;100.00
55010;BME280;40903;51.638;7.528;2024-02-28T08:16:26;101628.75;;;3.89;100.00
55010;BME280;40903;51.638;7.528;2024-02-28T08:18:51;101629.50;;;3.96;100.00
55010;BME280;40903;51.638;7.528;2024-02-28T08:21:17;101634.00;;;4.02;100.00
55010;BME280;40903;51.638;7.528;2024-02-28T08:23:46;101640.63;;;4.06;100.00
55010;BME280;40903;51.638;7.528;2024-02-28T08:26:12;101635.56;;;4.09;100.00
55010;BME280;40903;51.638;7.528;2024-02-28T08:28:40;101633.03;;;4.14;100.00
55010;BME280;40903;51.638;7.528;2024-02-28T08:31:06;101628.81;;;4.18;100.00
55010;BME280;40903;51.638;7.528;2024-02-28T08:33:31;101637.13;;;4.17;100.00
55010;BME280;40903;51.638;7.528;2024-02-28T08:35:57;101644.78;;;4.20;100.00
55010;BME280;40903;51.638;7.528;2024-02-28T08:38:22;101643.06;;;4.25;100.00
55010;BME280;40903;51.638;7.528;2024-02-28T08:40:48;101651.06;;;4.32;100.00
55010;BME280;40903;51.638;7.528;2024-02-28T08:43:14;101652.03;;;4.37;100.00
55010;BME280;40903;51.638;7.528;2024-02-28T08:45:39;101657.81;;;4.41;100.00
55010;BME280;40903;51.638;7.528;2024-02-28T08:48:06;101660.19;;;4.49;100.00
55010;BME280;40903;51.638;7.528;2024-02-28T08:50:31;101648.59;;;4.48;100.00
55010;BME280;40903;51.638;7.528;2024-02-28T08:52:57;101656.69;;;4.48;100.00
55010;BME280;40903;51.638;7.528;2024-02-28T08:55:22;101658.00;;;4.57;100.00
55010;BME280;40903;51.638;7.528;2024-02-28T08:57:49;101662.81;;;4.55;100.00
55010;BME280;40903;51.638;7.528;2024-02-28T09:00:14;101658.38;;;4.61;100.00
55010;BME280;40903;51.638;7.528;2024-02-28T09:02:40;101658.63;;;4.59;100.00
55010;BME280;40903;51.638;7.528;2024-02-28T09:05:06;101655.00;;;4.65;100.00
55010;BME280;40903;51.638;7.528;2024-02-28T09:07:32;101660.09;;;4.73;100.00
55010;BME280;40903;51.638;7.528;2024-02-28T09:10:04;101664.56;;;4.79;100.00
55010;BME280;40903;51.638;7.528;2024-02-28T09:12:32;101658.38;;;4.90;100.00
55010;BME280;40903;51.638;7.528;2024-02-28T09:14:57;101651.84;;;4.98;100.00
55010;BME280;40903;51.638;7.528;2024-02-28T09:17:24;101661.72;;;5.04;100.00
55010;BME280;40903;51.638;7.528;2024-02-28T09:19:50;101657.72;;;5.06;100.00
55010;BME280;40903;51.638;7.528;2024-02-28T09:22:16;101661.63;;;5.10;100.00
55010;BME280;40903;51.638;7.528;2024-02-28T09:24:42;101676.78;;;5.11;100.00
55010;BME280;40903;51.638;7.528;2024-02-28T09:27:08;101682.56;;;5.15;100.00
55010;BME280;40903;51.638;7.528;2024-02-28T09:29:33;101682.06;;;5.18;100.00
55010;BME280;40903;51.638;7.528;2024-02-28T09:31:59;101684.00;;;5.29;100.00
55010;BME280;40903;51.638;7.528;2024-02-28T09:34:25;101680.13;;;5.36;100.00
55010;BME280;40903;51.638;7.528;2024-02-28T09:36:50;101675.78;;;5.47;100.00
55010;BME280;40903;51.638;7.528;2024-02-28T09:39:16;101673.56;;;5.55;100.00
55010;BME280;40903;51.638;7.528;2024-02-28T09:41:41;101673.56;;;5.55;100.00
55010;BME280;40903;51.638;7.528;2024-02-28T09:44:07;101669.47;;;5.64;100.00
55010;BME280;40903;51.638;7.528;2024-02-28T09:46:34;101663.47;;;5.73;100.00
55010;BME280;40903;51.638;7.528;2024-02-28T09:49:03;101663.78;;;5.77;100.00
55010;BME280;40903;51.638;7.528;2024-02-28T09:51:33;101665.13;;;5.86;100.00
55010;BME280;40903;51.638;7.528;2024-02-28T09:54:01;101674.63;;;5.77;100.00
55010;BME280;40903;51.638;7.528;2024-02-28T09:56:27;101676.25;;;5.78;100.00
55010;BME280;40903;51.638;7.528;2024-02-28T09:58:54;101672.88;;;5.82;100.00
55010;BME280;40903;51.638;7.528;2024-02-28T10:01:22;101675.47;;;5.89;100.00
55010;BME280;40903;51.638;7.528;2024-02-28T10:03:50;101673.34;;;5.91;100.00
55010;BME280;40903;51.638;7.528;2024-02-28T10:06:20;101667.09;;;6.02;100.00
55010;BME280;40903;51.638;7.528;2024-02-28T10:08:46;101673.81;;;6.11;100.00
55010;BME280;40903;51.638;7.528;2024-02-28T10:11:21;101662.72;;;6.12;100.00
55010;BME280;40903;51.638;7.528;2024-02-28T10:13:47;101669.91;;;6.18;100.00
55010;BME280;40903;51.638;7.528;2024-02-28T10:16:13;101660.47;;;6.21;100.00
55010;BME280;40903;51.638;7.528;2024-02-28T10:18:45;101664.91;;;6.38;100.00
55010;BME280;40903;51.638;7.528;2024-02-28T10:21:11;101658.84;;;6.59;100.00
55010;BME280;40903;51.638;7.528;2024-02-28T10:23:44;101668.00;;;6.70;100.00
55010;BME280;40903;51.638;7.528;2024-02-28T10:26:11;101673.50;;;6.75;100.00
55010;BME280;40903;51.638;7.528;2024-02-28T10:28:37;101668.59;;;6.72;100.00
55010;BME280;40903;51.638;7.528;2024-02-28T10:31:04;101671.59;;;6.75;100.00
55010;BME280;40903;51.638;7.528;2024-02-28T10:33:30;101674.88;;;6.89;100.00
55010;BME280;40903;51.638;7.528;2024-02-28T10:35:58;101670.09;;;6.96;100.00
55010;BME280;40903;51.638;7.528;2024-02-28T10:38:26;101666.28;;;7.08;100.00
55010;BME280;40903;51.638;7.528;2024-02-28T10:40:53;101668.50;;;7.28;100.00
55010;BME280;40903;51.638;7.528;2024-02-28T10:43:19;101674.38;;;7.53;100.00
55010;BME280;40903;51.638;7.528;2024-02-28T10:45:46;101680.03;;;7.84;100.00
55010;BME280;40903;51.638;7.528;2024-02-28T10:48:14;101673.81;;;8.05;100.00
55010;BME280;40903;51.638;7.528;2024-02-28T10:50:44;101684.84;;;7.98;100.00
55010;BME280;40903;51.638;7.528;2024-02-28T10:53:14;101683.28;;;8.19;100.00
55010;BME280;40903;51.638;7.528;2024-02-28T10:55:41;101689.78;;;8.18;100.00
55010;BME280;40903;51.638;7.528;2024-02-28T10:58:08;101678.22;;;8.27;100.00
55010;BME280;40903;51.638;7.528;2024-02-28T11:00:36;101681.72;;;8.44;100.00
55010;BME280;40903;51.638;7.528;2024-02-28T11:03:04;101678.63;;;8.57;100.00
55010;BME280;40903;51.638;7.528;2024-02-28T11:05:41;101683.09;;;8.68;100.00
55010;BME280;40903;51.638;7.528;2024-02-28T11:08:20;101680.59;;;8.62;100.00
55010;BME280;40903;51.638;7.528;2024-02-28T11:10:47;101679.91;;;8.76;100.00
55010;BME280;40903;51.638;7.528;2024-02-28T11:13:27;101674.84;;;8.85;100.00
55010;BME280;40903;51.638;7.528;2024-02-28T11:15:53;101677.31;;;8.86;100.00
55010;BME280;40903;51.638;7.528;2024-02-28T11:18:20;101679.59;;;8.94;100.00
55010;BME280;40903;51.638;7.528;2024-02-28T11:20:46;101683.47;;;9.03;100.00
55010;BME280;40903;51.638;7.528;2024-02-28T11:23:13;101689.53;;;8.84;100.00
55010;BME280;40903;51.638;7.528;2024-02-28T11:25:40;101682.25;;;8.89;100.00
55010;BME280;40903;51.638;7.528;2024-02-28T11:28:05;101677.69;;;8.95;100.00
55010;BME280;40903;51.638;7.528;2024-02-28T11:30:32;101681.09;;;9.07;100.00
55010;BME280;40903;51.638;7.528;2024-02-28T11:32:58;101670.88;;;9.19;100.00
55010;BME280;40903;51.638;7.528;2024-02-28T11:35:25;101672.56;;;9.30;100.00
55010;BME280;40903;51.638;7.528;2024-02-28T11:37:54;101675.16;;;9.41;100.00
55010;BME280;40903;51.638;7.528;2024-02-28T11:40:26;101674.00;;;9.37;100.00
55010;BME280;40903;51.638;7.528;2024-02-28T11:42:52;101669.91;;;9.35;100.00
55010;BME280;40903;51.638;7.528;2024-02-28T11:45:18;101664.47;;;9.35;99.76
55010;BME280;40903;51.638;7.528;2024-02-28T11:47:44;101660.16;;;9.39;100.00
55010;BME280;40903;51.638;7.528;2024-02-28T11:50:10;101660.34;;;9.27;98.09
55010;BME280;40903;51.638;7.528;2024-02-28T11:52:36;101656.03;;;9.36;100.00
55010;BME280;40903;51.638;7.528;2024-02-28T11:55:02;101640.22;;;9.33;97.22
55010;BME280;40903;51.638;7.528;2024-02-28T11:57:28;101641.13;;;9.44;97.81
55010;BME280;40903;51.638;7.528;2024-02-28T11:59:56;101643.16;;;9.58;98.70
55010;BME280;40903;51.638;7.528;2024-02-28T12:02:22;101637.81;;;9.73;99.08
55010;BME280;40903;51.638;7.528;2024-02-28T12:04:51;101639.81;;;9.87;96.84
55010;BME280;40903;51.638;7.528;2024-02-28T12:07:18;101643.94;;;9.95;95.33
55010;BME280;40903;51.638;7.528;2024-02-28T12:09:46;101636.06;;;9.93;93.35
55010;BME280;40903;51.638;7.528;2024-02-28T12:12:13;101629.31;;;10.06;96.27
55010;BME280;40903;51.638;7.528;2024-02-28T12:14:39;101632.97;;;10.21;94.29
55010;BME280;40903;51.638;7.528;2024-02-28T12:17:05;101625.91;;;10.35;95.92
55010;BME280;40903;51.638;7.528;2024-02-28T12:19:31;101626.75;;;10.41;91.86
55010;BME280;40903;51.638;7.528;2024-02-28T12:21:56;101633.03;;;10.41;90.70
55010;BME280;40903;51.638;7.528;2024-02-28T12:24:24;101626.75;;;10.36;89.01
55010;BME280;40903;51.638;7.528;2024-02-28T12:26:49;101627.84;;;10.35;89.18
55010;BME280;40903;51.638;7.528;2024-02-28T12:29:15;101619.34;;;10.26;88.18
55010;BME280;40903;51.638;7.528;2024-02-28T12:31:40;101620.19;;;10.32;88.43
55010;BME280;40903;51.638;7.528;2024-02-28T12:34:06;101616.38;;;10.38;88.49
55010;BME280;40903;51.638;7.528;2024-02-28T12:36:31;101611.47;;;10.40;85.56
55010;BME280;40903;51.638;7.528;2024-02-28T12:38:57;101607.16;;;10.49;88.44
55010;BME280;40903;51.638;7.528;2024-02-28T12:41:25;101601.72;;;10.54;86.25
55010;BME280;40903;51.638;7.528;2024-02-28T12:43:51;101604.19;;;10.55;85.46
55010;BME280;40903;51.638;7.528;2024-02-28T12:46:16;101603.91;;;10.52;85.38